Collinsville Airport


Codes: YCSV/KCE
Name: Collinsville Airport
City:
Country: Australia
Elevation: 180 ft.

Photos at Collinsville Airport


   Photos courtesy of SpottingLog. You can add your own sightings and photos by signing up for a free trial today.



No photos found.

Weather at Collinsville Airport


Time (UTC)DescriptionTempratureWindCloud coverageVisibilityPressureHumidity
19-Apr-2024 06:00Overcast Clouds29°C2 mph, N100%10000m1012hPa52%
19-Apr-2024 09:00Overcast Clouds26°C7 mph, NE100%10000m1012hPa65%
19-Apr-2024 12:00Overcast Clouds23°C4 mph, NE100%10000m1013hPa82%
19-Apr-2024 15:00Overcast Clouds21°C4 mph, NE100%10000m1012hPa89%
19-Apr-2024 18:00Overcast Clouds21°C2 mph, SE100%10000m1011hPa91%
19-Apr-2024 21:00Overcast Clouds21°C2 mph, SE100%10000m1014hPa86%
20-Apr-2024 00:00Overcast Clouds27°C2 mph, SE100%10000m1014hPa59%
20-Apr-2024 03:00Overcast Clouds31°C2 mph, S99%10000m1010hPa44%
20-Apr-2024 06:00Overcast Clouds28°C2 mph, S90%10000m1009hPa54%
20-Apr-2024 09:00Light Rain23°C4 mph, SE99%8763m1012hPa80%
20-Apr-2024 12:00Light Rain21°C7 mph, SE99%10000m1013hPa83%
20-Apr-2024 15:00Overcast Clouds19°C4 mph, S95%10000m1012hPa88%
20-Apr-2024 18:00Broken Clouds17°C7 mph, S62%10000m1012hPa93%
20-Apr-2024 21:00Clear Sky17°C7 mph, S1%10000m1014hPa89%
21-Apr-2024 00:00Few Clouds22°C11 mph, S14%10000m1014hPa64%
21-Apr-2024 03:00Clear Sky27°C11 mph, S0%10000m1011hPa45%
21-Apr-2024 06:00Few Clouds27°C9 mph, S16%10000m1010hPa38%
21-Apr-2024 09:00Overcast Clouds22°C4 mph, S96%10000m1012hPa47%
21-Apr-2024 12:00Broken Clouds19°C7 mph, SE56%10000m1014hPa54%
21-Apr-2024 15:00Clear Sky16°C7 mph, SE0%10000m1014hPa82%
21-Apr-2024 18:00Clear Sky15°C7 mph, SE10%10000m1013hPa93%
21-Apr-2024 21:00Clear Sky16°C4 mph, SE0%10000m1014hPa90%
22-Apr-2024 00:00Clear Sky23°C13 mph, S0%10000m1015hPa59%
22-Apr-2024 03:00Clear Sky27°C13 mph, S0%10000m1012hPa43%
22-Apr-2024 06:00Clear Sky26°C16 mph, S0%10000m1010hPa44%
22-Apr-2024 09:00Clear Sky21°C9 mph, S0%10000m1012hPa64%
22-Apr-2024 12:00Clear Sky19°C7 mph, SE6%10000m1014hPa78%
22-Apr-2024 15:00Broken Clouds18°C7 mph, SE56%10000m1013hPa87%
22-Apr-2024 18:00Scattered Clouds18°C7 mph, SE36%10000m1012hPa88%
22-Apr-2024 21:00Broken Clouds20°C7 mph, S79%10000m1013hPa80%
23-Apr-2024 00:00Broken Clouds25°C9 mph, SE78%10000m1014hPa60%
23-Apr-2024 03:00Broken Clouds28°C2 mph, SE67%10000m1010hPa50%
23-Apr-2024 06:00Broken Clouds27°C2 mph, NE84%10000m1010hPa58%
23-Apr-2024 09:00Overcast Clouds25°C2 mph, N100%10000m1012hPa64%
23-Apr-2024 12:00Overcast Clouds23°C2 mph, NE100%10000m1013hPa71%
23-Apr-2024 15:00Overcast Clouds23°C2 mph, S100%10000m1013hPa74%
23-Apr-2024 18:00Overcast Clouds22°C2 mph, S100%10000m1012hPa75%
23-Apr-2024 21:00Overcast Clouds21°C4 mph, SE100%10000m1013hPa77%
24-Apr-2024 00:00Overcast Clouds25°C4 mph, SE100%10000m1014hPa59%
24-Apr-2024 03:00Overcast Clouds28°C4 mph, SE100%10000m1012hPa50%